Time;durP1;ratioP1;P1;durP2;ratioP2;P2;SDS_P1;SDS_P2;PMS_P1;PMS_P2;Temp;Humidity;BMP_temperature;BMP_pressure;BME280_temperature;BME280_humidity;BME280_pressure;Samples;Min_cycle;Max_cycle;Signal;HPM_P1;HPM_P2
2022/01/02 00:01:39;;;;;;;13.87;10.07;;;;;;;;;;4929605;28;20268;-61
2022/01/02 00:04:07;;;;;;;11.03;8.50;;;;;;;;;;4926939;28;20301;-62
2022/01/02 00:06:40;;;;;;;14.57;9.40;;;;;;;;;;4925939;28;20242;-61
2022/01/02 00:09:07;;;;;;;11.43;9.07;;;;;;;;;;4922671;28;20262;-61
2022/01/02 00:11:37;;;;;;;14.27;10.13;;;;;;;;;;4920013;28;20201;-61
2022/01/02 00:14:07;;;;;;;18.53;11.73;;;;;;;;;;4921905;28;20613;-59
2022/01/02 00:16:38;;;;;;;21.10;12.97;;;;;;;;;;4915911;28;20223;-60
2022/01/02 00:19:17;;;;;;;17.00;11.83;;;;;;;;;;4919366;28;20210;-62
2022/01/02 00:21:46;;;;;;;15.70;10.27;;;;;;;;;;4923771;28;20213;-62
2022/01/02 00:24:19;;;;;;;15.93;10.10;;;;;;;;;;4915616;28;21033;-59
2022/01/02 00:26:49;;;;;;;13.80;8.87;;;;;;;;;;4918319;28;20210;-58
2022/01/02 00:29:16;;;;;;;14.17;9.37;;;;;;;;;;4915779;28;20241;-60
2022/01/02 00:31:44;;;;;;;15.13;8.87;;;;;;;;;;4921211;28;21995;-62
2022/01/02 00:34:11;;;;;;;15.87;9.67;;;;;;;;;;4938154;28;20210;-61
2022/01/02 00:36:39;;;;;;;18.00;9.60;;;;;;;;;;4916136;28;20312;-59
2022/01/02 00:39:08;;;;;;;12.00;6.73;;;;;;;;;;4922900;29;20238;-61
2022/01/02 00:41:35;;;;;;;6.67;5.10;;;;;;;;;;4917629;28;20224;-61
2022/01/02 00:44:07;;;;;;;8.23;5.67;;;;;;;;;;4920696;28;20233;-62
2022/01/02 00:46:35;;;;;;;6.33;5.00;;;;;;;;;;4921455;28;20213;-61
2022/01/02 00:49:03;;;;;;;8.30;5.30;;;;;;;;;;4916621;28;20234;-61
2022/01/02 00:51:51;;;;;;;5.80;4.70;;;;;;;;;;4931790;28;21606;-61
2022/01/02 00:54:22;;;;;;;6.17;4.53;;;;;;;;;;4927317;28;20209;-60
2022/01/02 00:56:52;;;;;;;7.80;4.77;;;;;;;;;;4912886;28;20218;-61
2022/01/02 00:59:27;;;;;;;8.50;4.87;;;;;;;;;;4924341;28;20737;-63
2022/01/02 01:02:02;;;;;;;7.30;5.50;;;;;;;;;;4930584;28;20697;-59
2022/01/02 01:04:31;;;;;;;7.87;4.83;;;;;;;;;;4921747;28;20232;-61
2022/01/02 01:07:05;;;;;;;7.37;6.37;;;;;;;;;;4932297;28;20210;-62
2022/01/02 01:09:34;;;;;;;5.90;4.47;;;;;;;;;;4923296;28;20695;-59
2022/01/02 01:12:02;;;;;;;5.73;4.27;;;;;;;;;;4938250;28;20632;-61
2022/01/02 01:14:30;;;;;;;7.20;5.03;;;;;;;;;;4924677;28;20229;-62
2022/01/02 01:16:58;;;;;;;12.37;7.33;;;;;;;;;;4928338;29;20198;-63
2022/01/02 01:19:26;;;;;;;11.80;7.63;;;;;;;;;;4932244;28;20284;-63
2022/01/02 01:21:54;;;;;;;10.50;7.07;;;;;;;;;;4913707;28;20304;-61
2022/01/02 01:24:22;;;;;;;9.77;6.30;;;;;;;;;;4926493;28;20228;-63
2022/01/02 01:26:53;;;;;;;9.80;5.80;;;;;;;;;;4920237;28;20206;-63
2022/01/02 01:29:20;;;;;;;10.50;6.07;;;;;;;;;;4921325;28;20225;-63
2022/01/02 01:31:48;;;;;;;10.37;6.00;;;;;;;;;;4926019;28;20202;-62
2022/01/02 01:34:15;;;;;;;7.33;4.97;;;;;;;;;;4934417;28;20533;-60
2022/01/02 01:36:42;;;;;;;3.97;3.10;;;;;;;;;;4916883;28;23398;-64
2022/01/02 01:39:10;;;;;;;5.43;3.40;;;;;;;;;;4928855;28;20975;-63
2022/01/02 01:41:38;;;;;;;5.93;4.50;;;;;;;;;;4929326;28;20620;-62
2022/01/02 01:44:26;;;;;;;17.63;9.83;;;;;;;;;;4926614;28;20216;-61
2022/01/02 01:46:56;;;;;;;9.53;5.80;;;;;;;;;;4918745;28;20628;-62
2022/01/02 01:49:29;;;;;;;9.30;5.63;;;;;;;;;;4929441;28;20237;-64
2022/01/02 01:51:58;;;;;;;7.17;4.50;;;;;;;;;;4924471;29;20205;-60
2022/01/02 01:54:25;;;;;;;6.80;4.67;;;;;;;;;;4926256;28;20233;-62
2022/01/02 01:56:53;;;;;;;6.13;4.43;;;;;;;;;;4920296;28;20213;-62
2022/01/02 01:59:21;;;;;;;5.77;4.27;;;;;;;;;;4940859;28;20205;-61
2022/01/02 02:01:49;;;;;;;4.80;4.20;;;;;;;;;;4933881;29;20213;-60
2022/01/02 02:04:17;;;;;;;5.57;3.83;;;;;;;;;;4926781;28;20213;-62
2022/01/02 02:06:44;;;;;;;5.67;3.73;;;;;;;;;;4929261;28;20347;-62
2022/01/02 02:09:12;;;;;;;4.30;3.73;;;;;;;;;;4932741;28;20226;-62
2022/01/02 02:11:40;;;;;;;6.20;3.30;;;;;;;;;;4929381;28;20302;-63
2022/01/02 02:14:08;;;;;;;6.60;4.30;;;;;;;;;;4925420;28;20217;-62
2022/01/02 02:16:36;;;;;;;6.77;3.80;;;;;;;;;;4921007;28;20833;-62
2022/01/02 02:19:04;;;;;;;8.23;4.80;;;;;;;;;;4924683;28;20667;-61
2022/01/02 02:21:36;;;;;;;8.83;4.13;;;;;;;;;;4918982;28;20210;-61
2022/01/02 02:24:05;;;;;;;8.17;4.53;;;;;;;;;;4929073;28;20241;-62
2022/01/02 02:26:37;;;;;;;9.67;5.63;;;;;;;;;;4920825;28;20282;-62
2022/01/02 02:29:05;;;;;;;10.00;5.87;;;;;;;;;;4926769;28;20230;-63
2022/01/02 02:31:33;;;;;;;14.50;7.47;;;;;;;;;;4916469;28;20216;-59
2022/01/02 02:34:00;;;;;;;13.23;7.47;;;;;;;;;;4931811;28;20214;-62
2022/01/02 02:36:28;;;;;;;15.07;7.40;;;;;;;;;;4919946;28;20210;-61
2022/01/02 02:38:55;;;;;;;12.77;6.93;;;;;;;;;;4916460;28;20218;-62
2022/01/02 02:41:22;;;;;;;12.10;6.40;;;;;;;;;;4919457;28;20218;-61
2022/01/02 02:44:37;;;;;;;8.33;4.70;;;;;;;;;;4930594;29;20749;-61
2022/01/02 02:49:27;;;;;;;4.97;3.30;;;;;;;;;;4930839;28;20249;-62
2022/01/02 02:52:07;;;;;;;4.87;3.20;;;;;;;;;;4935975;28;20631;-62
2022/01/02 02:54:35;;;;;;;4.13;3.13;;;;;;;;;;4917897;28;20221;-63
2022/01/02 02:57:11;;;;;;;5.43;3.07;;;;;;;;;;4923860;28;20589;-60
2022/01/02 02:59:38;;;;;;;6.47;3.50;;;;;;;;;;4914017;28;20222;-61
2022/01/02 03:02:06;;;;;;;5.23;3.47;;;;;;;;;;4929484;29;20206;-59
2022/01/02 03:04:33;;;;;;;3.97;3.03;;;;;;;;;;4937870;28;20470;-63
2022/01/02 03:07:01;;;;;;;3.80;3.00;;;;;;;;;;4917892;28;20228;-60
2022/01/02 03:11:59;;;;;;;2.43;2.07;;;;;;;;;;4937178;28;20201;-62
2022/01/02 03:14:26;;;;;;;3.00;2.43;;;;;;;;;;4928007;28;20244;-63
2022/01/02 03:16:54;;;;;;;2.67;2.17;;;;;;;;;;4915619;28;20213;-63
2022/01/02 03:19:21;;;;;;;3.00;2.70;;;;;;;;;;4927055;28;20217;-63
2022/01/02 03:21:49;;;;;;;4.10;3.03;;;;;;;;;;4919119;28;20688;-62
2022/01/02 03:24:16;;;;;;;2.80;2.60;;;;;;;;;;4924505;28;20695;-61
2022/01/02 03:26:44;;;;;;;3.20;2.90;;;;;;;;;;4921950;28;20205;-62
2022/01/02 03:29:11;;;;;;;3.27;2.70;;;;;;;;;;4920997;29;20234;-61
2022/01/02 03:31:39;;;;;;;2.83;2.60;;;;;;;;;;4915282;28;20205;-62
2022/01/02 03:34:06;;;;;;;2.80;2.50;;;;;;;;;;4934973;28;20207;-61
2022/01/02 03:36:33;;;;;;;2.57;2.37;;;;;;;;;;4925285;29;20213;-63
2022/01/02 03:39:01;;;;;;;2.30;2.20;;;;;;;;;;4930543;28;20702;-62
2022/01/02 03:41:28;;;;;;;2.33;2.13;;;;;;;;;;4918749;28;20919;-62
2022/01/02 03:43:55;;;;;;;4.03;2.53;;;;;;;;;;4915354;28;20836;-61
2022/01/02 03:46:23;;;;;;;5.53;4.20;;;;;;;;;;4927872;28;20319;-61
2022/01/02 03:48:50;;;;;;;3.30;2.70;;;;;;;;;;4926801;28;20214;-61
2022/01/02 03:51:18;;;;;;;2.90;2.60;;;;;;;;;;4939196;28;20202;-61
2022/01/02 03:53:45;;;;;;;2.43;2.23;;;;;;;;;;4948080;28;20276;-61
2022/01/02 03:56:12;;;;;;;3.20;2.17;;;;;;;;;;4926068;29;20647;-63
2022/01/02 03:58:41;;;;;;;2.90;2.60;;;;;;;;;;4924075;28;20640;-62
2022/01/02 04:01:08;;;;;;;4.07;2.87;;;;;;;;;;4933635;28;20217;-63
2022/01/02 04:03:36;;;;;;;2.60;2.30;;;;;;;;;;4926172;28;20205;-62
2022/01/02 04:06:03;;;;;;;2.13;2.00;;;;;;;;;;4919510;28;20321;-61
2022/01/02 04:08:30;;;;;;;2.60;2.40;;;;;;;;;;4926634;28;20206;-62
2022/01/02 04:10:58;;;;;;;2.33;2.00;;;;;;;;;;4928665;29;20308;-61
2022/01/02 04:13:25;;;;;;;2.50;2.20;;;;;;;;;;4926799;28;20203;-63
2022/01/02 04:15:52;;;;;;;2.20;2.00;;;;;;;;;;4926158;28;20233;-61
2022/01/02 04:18:20;;;;;;;2.70;2.00;;;;;;;;;;4923463;28;20221;-61
2022/01/02 04:20:49;;;;;;;2.97;2.20;;;;;;;;;;4924752;28;20213;-61
2022/01/02 04:23:16;;;;;;;2.17;1.83;;;;;;;;;;4931046;29;20205;-61
2022/01/02 04:25:45;;;;;;;3.77;2.20;;;;;;;;;;4925752;28;20225;-61
2022/01/02 04:28:13;;;;;;;2.03;1.90;;;;;;;;;;4940956;28;20211;-60
2022/01/02 04:30:40;;;;;;;2.00;1.90;;;;;;;;;;4919596;28;20237;-62
2022/01/02 04:33:08;;;;;;;2.00;1.90;;;;;;;;;;4922693;28;20210;-62
2022/01/02 04:35:35;;;;;;;1.93;1.83;;;;;;;;;;4932413;28;20221;-62
2022/01/02 04:38:03;;;;;;;2.60;2.20;;;;;;;;;;4921430;28;20202;-62
2022/01/02 04:40:30;;;;;;;3.13;2.70;;;;;;;;;;4919022;28;20213;-62
2022/01/02 04:42:58;;;;;;;3.20;2.90;;;;;;;;;;4920715;28;20231;-62
2022/01/02 04:45:25;;;;;;;2.83;2.60;;;;;;;;;;4939427;28;20368;-62
2022/01/02 04:47:53;;;;;;;3.47;2.80;;;;;;;;;;4930083;28;20213;-62
2022/01/02 04:50:21;;;;;;;2.80;2.60;;;;;;;;;;4920039;28;20743;-62
2022/01/02 04:52:48;;;;;;;3.67;2.50;;;;;;;;;;4919730;28;21899;-62
2022/01/02 04:55:16;;;;;;;2.67;2.47;;;;;;;;;;4924408;28;20228;-62
2022/01/02 04:57:43;;;;;;;2.97;2.67;;;;;;;;;;4919839;28;20212;-62
2022/01/02 05:00:11;;;;;;;3.17;2.87;;;;;;;;;;4926927;29;20297;-62
2022/01/02 05:02:39;;;;;;;3.03;2.47;;;;;;;;;;4945294;28;20241;-62
2022/01/02 05:05:11;;;;;;;2.87;2.67;;;;;;;;;;4945367;28;20233;-62
2022/01/02 05:07:40;;;;;;;3.47;2.80;;;;;;;;;;4936225;28;20217;-62
2022/01/02 05:10:09;;;;;;;2.87;2.63;;;;;;;;;;4940793;28;20233;-62
2022/01/02 05:12:37;;;;;;;3.97;3.00;;;;;;;;;;4945674;28;20206;-61
2022/01/02 05:15:06;;;;;;;5.37;3.53;;;;;;;;;;4940198;28;20230;-62
2022/01/02 05:17:35;;;;;;;3.60;3.20;;;;;;;;;;4927932;28;20229;-62
2022/01/02 05:20:04;;;;;;;3.83;3.10;;;;;;;;;;4918873;28;20244;-61
2022/01/02 05:22:31;;;;;;;3.70;3.20;;;;;;;;;;4918505;28;20220;-62
2022/01/02 05:24:58;;;;;;;3.17;2.70;;;;;;;;;;4928978;28;20741;-62
2022/01/02 05:27:27;;;;;;;4.00;3.00;;;;;;;;;;4923130;28;20257;-62
2022/01/02 05:29:54;;;;;;;3.50;3.17;;;;;;;;;;4937223;28;20268;-62
2022/01/02 05:32:25;;;;;;;4.00;2.93;;;;;;;;;;4925298;28;20213;-62
2022/01/02 05:34:54;;;;;;;3.53;3.23;;;;;;;;;;4908124;28;20226;-62
2022/01/02 05:37:22;;;;;;;3.77;3.37;;;;;;;;;;4921498;28;20218;-62
2022/01/02 05:39:51;;;;;;;7.37;4.23;;;;;;;;;;4937743;28;20205;-61
2022/01/02 05:42:21;;;;;;;3.90;3.33;;;;;;;;;;4942520;28;20272;-62
2022/01/02 05:44:50;;;;;;;3.37;2.97;;;;;;;;;;4924518;28;20237;-62
2022/01/02 05:47:18;;;;;;;4.43;2.97;;;;;;;;;;4927135;28;20218;-62
2022/01/02 05:49:45;;;;;;;3.17;2.87;;;;;;;;;;4931183;28;20221;-62
2022/01/02 05:52:12;;;;;;;3.43;3.03;;;;;;;;;;4925387;28;20198;-62
2022/01/02 05:54:40;;;;;;;3.87;3.17;;;;;;;;;;4929298;28;20226;-62
2022/01/02 05:57:08;;;;;;;4.00;3.23;;;;;;;;;;4929180;28;20664;-62
2022/01/02 05:59:39;;;;;;;3.10;2.80;;;;;;;;;;4924295;28;20206;-62
2022/01/02 06:02:08;;;;;;;3.13;2.80;;;;;;;;;;4938913;28;21128;-62
2022/01/02 06:04:37;;;;;;;3.60;2.77;;;;;;;;;;4938778;28;20233;-61
2022/01/02 06:07:06;;;;;;;3.70;3.17;;;;;;;;;;4929024;29;20206;-61
2022/01/02 06:09:36;;;;;;;4.17;3.43;;;;;;;;;;4923266;28;20245;-61
2022/01/02 06:12:04;;;;;;;4.33;3.70;;;;;;;;;;4920709;28;20213;-62
2022/01/02 06:14:31;;;;;;;4.70;4.27;;;;;;;;;;4917386;28;20241;-62
2022/01/02 06:16:58;;;;;;;4.07;3.67;;;;;;;;;;4933830;28;20212;-62
2022/01/02 06:19:26;;;;;;;3.70;3.40;;;;;;;;;;4920727;28;20213;-62
2022/01/02 06:21:55;;;;;;;3.57;3.20;;;;;;;;;;4923137;28;21440;-62
2022/01/02 06:24:25;;;;;;;3.97;3.37;;;;;;;;;;4903859;28;20253;-62
2022/01/02 06:26:54;;;;;;;3.60;3.30;;;;;;;;;;4940213;28;20259;-61
2022/01/02 06:29:22;;;;;;;4.23;3.63;;;;;;;;;;4919369;28;20855;-62
2022/01/02 06:31:50;;;;;;;4.23;3.10;;;;;;;;;;4910850;28;20296;-62
2022/01/02 06:34:17;;;;;;;3.07;2.77;;;;;;;;;;4913717;28;20232;-63
2022/01/02 06:36:45;;;;;;;3.80;2.97;;;;;;;;;;4917840;28;21227;-62
2022/01/02 06:39:12;;;;;;;3.00;2.70;;;;;;;;;;4918854;28;20212;-62
2022/01/02 06:41:40;;;;;;;3.70;3.20;;;;;;;;;;4914925;28;20217;-62
2022/01/02 06:44:07;;;;;;;3.53;3.23;;;;;;;;;;4912938;28;21522;-62
2022/01/02 06:46:35;;;;;;;3.57;3.27;;;;;;;;;;4935368;28;20305;-62
2022/01/02 06:49:03;;;;;;;2.90;2.67;;;;;;;;;;4912614;28;20205;-62
2022/01/02 06:51:47;;;;;;;2.67;2.47;;;;;;;;;;4915425;28;20718;-61
2022/01/02 06:54:14;;;;;;;2.93;2.60;;;;;;;;;;4912129;28;20702;-61
2022/01/02 06:56:42;;;;;;;2.90;2.67;;;;;;;;;;4907089;28;20568;-61
2022/01/02 06:59:09;;;;;;;5.17;3.27;;;;;;;;;;4914629;28;20210;-61
2022/01/02 07:01:36;;;;;;;4.13;3.23;;;;;;;;;;4936971;28;20221;-61
2022/01/02 07:04:05;;;;;;;3.30;3.00;;;;;;;;;;4942723;28;20229;-61
2022/01/02 07:06:33;;;;;;;5.47;3.90;;;;;;;;;;4913228;28;20213;-61
2022/01/02 07:09:00;;;;;;;4.77;3.53;;;;;;;;;;4916169;28;20707;-61
2022/01/02 07:11:27;;;;;;;3.80;3.40;;;;;;;;;;4920151;28;20232;-61
2022/01/02 07:13:55;;;;;;;5.37;3.43;;;;;;;;;;4926796;28;20248;-61
2022/01/02 07:16:23;;;;;;;2.70;2.50;;;;;;;;;;4940866;28;20312;-62
2022/01/02 07:18:50;;;;;;;3.40;3.10;;;;;;;;;;4914331;28;20272;-61
2022/01/02 07:21:18;;;;;;;3.17;2.90;;;;;;;;;;4915182;28;20214;-60
2022/01/02 07:23:46;;;;;;;2.90;2.60;;;;;;;;;;4918202;28;20244;-61
2022/01/02 07:26:13;;;;;;;3.33;2.60;;;;;;;;;;4913397;28;20476;-61
2022/01/02 07:28:40;;;;;;;2.40;2.20;;;;;;;;;;4896087;28;20315;-61
2022/01/02 07:31:08;;;;;;;3.47;2.90;;;;;;;;;;4907050;28;20241;-60
2022/01/02 07:33:35;;;;;;;3.87;2.90;;;;;;;;;;4900782;28;20208;-61
2022/01/02 07:36:03;;;;;;;2.80;2.60;;;;;;;;;;4907223;28;20232;-61
2022/01/02 07:38:31;;;;;;;3.03;2.73;;;;;;;;;;4917467;28;20216;-61
2022/01/02 07:40:59;;;;;;;4.47;2.97;;;;;;;;;;4920903;28;20221;-62
2022/01/02 07:43:27;;;;;;;6.87;4.13;;;;;;;;;;4924019;28;20218;-61
2022/01/02 07:45:54;;;;;;;6.10;3.90;;;;;;;;;;4920186;28;20228;-61
2022/01/02 07:48:23;;;;;;;4.47;3.10;;;;;;;;;;4924237;28;20217;-61
2022/01/02 07:50:50;;;;;;;2.87;2.57;;;;;;;;;;4939037;28;20711;-60
2022/01/02 07:53:17;;;;;;;2.47;2.27;;;;;;;;;;4949346;28;20702;-62
2022/01/02 07:55:45;;;;;;;2.50;2.30;;;;;;;;;;4931890;28;20576;-62
2022/01/02 07:58:13;;;;;;;3.07;2.40;;;;;;;;;;4933625;28;20703;-62
2022/01/02 08:00:41;;;;;;;2.47;2.27;;;;;;;;;;4920999;28;20219;-62
2022/01/02 08:03:08;;;;;;;2.83;2.47;;;;;;;;;;4924318;28;20221;-60
2022/01/02 08:05:43;;;;;;;3.23;2.30;;;;;;;;;;4927211;28;20238;-60
2022/01/02 08:08:11;;;;;;;2.70;2.50;;;;;;;;;;4927957;28;20463;-61
2022/01/02 08:10:39;;;;;;;2.67;2.47;;;;;;;;;;4915229;28;20244;-61
2022/01/02 08:13:06;;;;;;;2.20;2.00;;;;;;;;;;4920280;28;20511;-60
2022/01/02 08:15:34;;;;;;;2.20;2.00;;;;;;;;;;4912603;28;20225;-62
2022/01/02 08:18:02;;;;;;;2.60;2.40;;;;;;;;;;4911488;28;20308;-61
2022/01/02 08:20:29;;;;;;;2.63;2.40;;;;;;;;;;4910585;28;20217;-62
2022/01/02 08:22:57;;;;;;;3.47;2.40;;;;;;;;;;4940493;28;20742;-62
2022/01/02 08:25:24;;;;;;;1.80;1.70;;;;;;;;;;4931870;28;20292;-61
2022/01/02 08:27:55;;;;;;;2.30;2.10;;;;;;;;;;4920419;28;20680;-60
2022/01/02 08:30:23;;;;;;;2.13;1.93;;;;;;;;;;4941012;28;20234;-62
2022/01/02 08:32:50;;;;;;;2.80;2.60;;;;;;;;;;4917814;28;20206;-62
2022/01/02 08:35:18;;;;;;;4.20;3.67;;;;;;;;;;4928866;28;20292;-62
2022/01/02 08:37:45;;;;;;;2.60;2.40;;;;;;;;;;4924186;28;20205;-62
2022/01/02 08:40:12;;;;;;;1.80;1.70;;;;;;;;;;4918570;28;20213;-62
2022/01/02 08:42:40;;;;;;;1.87;1.43;;;;;;;;;;4918485;28;20795;-62
2022/01/02 08:45:07;;;;;;;1.97;1.80;;;;;;;;;;4912395;28;20279;-60
2022/01/02 08:47:36;;;;;;;1.67;1.40;;;;;;;;;;4917049;28;20225;-62
2022/01/02 08:50:04;;;;;;;1.70;1.60;;;;;;;;;;4935908;28;20298;-62
2022/01/02 08:52:31;;;;;;;2.37;1.60;;;;;;;;;;4922706;28;20202;-61
2022/01/02 08:55:00;;;;;;;2.10;1.90;;;;;;;;;;4919987;28;20225;-62
2022/01/02 08:57:28;;;;;;;2.37;2.17;;;;;;;;;;4913996;28;20202;-65
2022/01/02 08:59:55;;;;;;;5.33;3.63;;;;;;;;;;4921458;28;20201;-61
2022/01/02 09:02:23;;;;;;;5.33;4.00;;;;;;;;;;4929472;28;20652;-62
2022/01/02 09:04:52;;;;;;;2.33;1.97;;;;;;;;;;4918852;29;20225;-63
2022/01/02 09:07:22;;;;;;;2.73;2.13;;;;;;;;;;4935827;28;20237;-61
2022/01/02 09:09:50;;;;;;;2.27;2.07;;;;;;;;;;4923688;28;20213;-61
2022/01/02 09:12:18;;;;;;;1.40;1.30;;;;;;;;;;4937707;28;20230;-62
2022/01/02 09:14:46;;;;;;;2.83;1.50;;;;;;;;;;4933980;28;20316;-62
2022/01/02 09:17:13;;;;;;;1.47;1.37;;;;;;;;;;4923072;28;20224;-61
2022/01/02 09:19:41;;;;;;;2.83;1.60;;;;;;;;;;4923938;28;20241;-60
2022/01/02 09:22:08;;;;;;;2.07;1.50;;;;;;;;;;4922707;28;20289;-62
2022/01/02 09:24:35;;;;;;;1.80;1.70;;;;;;;;;;4936286;28;20225;-62
2022/01/02 09:27:03;;;;;;;2.10;1.70;;;;;;;;;;4921693;29;20595;-63
2022/01/02 09:29:31;;;;;;;1.70;1.60;;;;;;;;;;4922116;28;20198;-60
2022/01/02 09:31:59;;;;;;;1.87;1.60;;;;;;;;;;4920931;28;20229;-60
2022/01/02 09:34:27;;;;;;;1.53;1.43;;;;;;;;;;4924483;28;21079;-60
2022/01/02 09:36:54;;;;;;;2.20;2.07;;;;;;;;;;4923953;28;20677;-64
2022/01/02 09:39:22;;;;;;;2.20;2.00;;;;;;;;;;4927604;28;20665;-62
2022/01/02 09:41:49;;;;;;;1.90;1.80;;;;;;;;;;4930890;28;20212;-64
2022/01/02 09:44:17;;;;;;;1.83;1.73;;;;;;;;;;4921032;28;20214;-61
2022/01/02 09:46:45;;;;;;;1.53;1.43;;;;;;;;;;4922231;28;20927;-64
2022/01/02 09:49:13;;;;;;;3.43;3.13;;;;;;;;;;4929297;28;20210;-61
2022/01/02 09:51:41;;;;;;;6.23;5.37;;;;;;;;;;4929549;28;20229;-63
2022/01/02 09:54:10;;;;;;;3.03;2.73;;;;;;;;;;4939996;28;20212;-63
2022/01/02 09:56:38;;;;;;;6.80;4.23;;;;;;;;;;4930099;28;20668;-61
2022/01/02 09:59:06;;;;;;;4.07;3.73;;;;;;;;;;4918430;28;20214;-62
2022/01/02 10:01:36;;;;;;;1.87;1.73;;;;;;;;;;4942079;28;20213;-64
2022/01/02 10:04:04;;;;;;;1.93;1.73;;;;;;;;;;4929139;29;20209;-62
2022/01/02 10:06:40;;;;;;;2.00;1.80;;;;;;;;;;4930810;28;20218;-63
2022/01/02 10:09:15;;;;;;;2.53;1.50;;;;;;;;;;4934795;28;20321;-63
2022/01/02 10:11:43;;;;;;;1.93;1.70;;;;;;;;;;4907718;29;20229;-61
2022/01/02 10:14:11;;;;;;;2.57;2.10;;;;;;;;;;4903928;28;20201;-62
2022/01/02 10:16:39;;;;;;;2.13;1.93;;;;;;;;;;4920691;28;20202;-63
2022/01/02 10:19:17;;;;;;;2.80;2.47;;;;;;;;;;4927577;29;20236;-61
2022/01/02 10:21:53;;;;;;;3.40;2.87;;;;;;;;;;4923919;29;20212;-61
2022/01/02 10:24:24;;;;;;;2.60;2.40;;;;;;;;;;4923586;29;20211;-63
2022/01/02 10:27:12;;;;;;;2.83;2.30;;;;;;;;;;4943590;28;20855;-62
2022/01/02 10:29:56;;;;;;;2.93;2.60;;;;;;;;;;4928017;28;20210;-62
2022/01/02 10:32:35;;;;;;;3.07;2.40;;;;;;;;;;4921801;28;20225;-65
2022/01/02 10:35:15;;;;;;;4.37;3.43;;;;;;;;;;4925489;29;20241;-61
2022/01/02 10:37:44;;;;;;;6.43;3.87;;;;;;;;;;4924268;28;20218;-61
2022/01/02 10:40:32;;;;;;;4.60;3.00;;;;;;;;;;4922100;28;20568;-62
2022/01/02 10:43:00;;;;;;;3.60;2.77;;;;;;;;;;4930971;28;20710;-62
2022/01/02 10:45:40;;;;;;;2.97;2.77;;;;;;;;;;4932772;28;20242;-62
2022/01/02 10:48:15;;;;;;;7.37;6.00;;;;;;;;;;4928720;28;20206;-62
2022/01/02 10:50:59;;;;;;;2.57;2.37;;;;;;;;;;4925463;28;20217;-62
2022/01/02 10:53:28;;;;;;;2.90;2.40;;;;;;;;;;4916287;28;20210;-61
2022/01/02 10:55:55;;;;;;;4.20;2.97;;;;;;;;;;4933287;28;20224;-62
2022/01/02 10:58:25;;;;;;;4.07;3.03;;;;;;;;;;4929127;28;20301;-61
2022/01/02 11:00:53;;;;;;;2.53;2.30;;;;;;;;;;4924546;28;20578;-62
2022/01/02 11:03:24;;;;;;;2.63;2.43;;;;;;;;;;4929761;28;20213;-63
2022/01/02 11:05:56;;;;;;;2.63;2.43;;;;;;;;;;4926047;29;20226;-62
2022/01/02 11:08:24;;;;;;;2.43;2.23;;;;;;;;;;4935606;28;20216;-61
2022/01/02 11:10:54;;;;;;;2.40;2.17;;;;;;;;;;4922985;29;20240;-61
2022/01/02 11:13:21;;;;;;;2.87;2.40;;;;;;;;;;4930202;28;20209;-61
2022/01/02 11:15:49;;;;;;;3.17;2.90;;;;;;;;;;4926355;28;20235;-62
2022/01/02 11:18:17;;;;;;;2.10;1.90;;;;;;;;;;4927789;28;20219;-63
2022/01/02 11:20:45;;;;;;;2.00;1.80;;;;;;;;;;4926265;28;20217;-61
2022/01/02 11:23:15;;;;;;;1.70;1.60;;;;;;;;;;4926581;29;20216;-63
2022/01/02 11:26:07;;;;;;;2.23;2.03;;;;;;;;;;4929647;28;20303;-61
2022/01/02 11:28:35;;;;;;;2.50;2.30;;;;;;;;;;4948131;28;20216;-62
2022/01/02 11:31:04;;;;;;;3.70;2.67;;;;;;;;;;4944609;28;20260;-62
2022/01/02 11:33:36;;;;;;;2.50;2.30;;;;;;;;;;4922818;28;20205;-62
2022/01/02 11:36:22;;;;;;;2.07;1.87;;;;;;;;;;4938226;28;20225;-62
2022/01/02 11:39:00;;;;;;;2.17;2.07;;;;;;;;;;4925951;29;20206;-60
2022/01/02 11:41:37;;;;;;;2.33;2.13;;;;;;;;;;4939780;28;20205;-60
2022/01/02 11:44:11;;;;;;;2.00;1.73;;;;;;;;;;4924322;28;20218;-62
2022/01/02 11:46:39;;;;;;;1.80;1.70;;;;;;;;;;4945332;28;20213;-62
2022/01/02 11:49:13;;;;;;;2.03;1.70;;;;;;;;;;4930851;28;20688;-61
2022/01/02 11:52:00;;;;;;;1.50;1.40;;;;;;;;;;4918353;28;20235;-60
2022/01/02 11:54:39;;;;;;;19.27;14.03;;;;;;;;;;4923997;28;20226;-62
2022/01/02 11:57:15;;;;;;;3.00;2.70;;;;;;;;;;4946858;28;20202;-62
2022/01/02 11:59:46;;;;;;;3.27;1.67;;;;;;;;;;4921633;29;20209;-63
2022/01/02 12:02:14;;;;;;;2.70;2.50;;;;;;;;;;4917412;28;20223;-62
2022/01/02 12:07:35;;;;;;;2.50;2.40;;;;;;;;;;4930820;28;21199;-61
2022/01/02 12:10:12;;;;;;;2.00;1.90;;;;;;;;;;4938089;28;20625;-61
2022/01/02 12:12:58;;;;;;;3.17;2.43;;;;;;;;;;4908909;28;20249;-60
2022/01/02 12:15:35;;;;;;;2.13;2.03;;;;;;;;;;4927866;28;20268;-61
2022/01/02 12:18:08;;;;;;;1.80;1.70;;;;;;;;;;4910180;28;20217;-61
2022/01/02 12:20:56;;;;;;;2.30;2.00;;;;;;;;;;4911097;28;20556;-61
2022/01/02 12:23:30;;;;;;;2.17;1.97;;;;;;;;;;4920259;28;20588;-63
2022/01/02 12:26:08;;;;;;;2.60;2.40;;;;;;;;;;4918241;28;20938;-61
2022/01/02 12:28:58;;;;;;;2.37;2.17;;;;;;;;;;4924742;28;20221;-61
2022/01/02 12:31:31;;;;;;;2.50;2.30;;;;;;;;;;4936572;28;20284;-61
2022/01/02 12:34:19;;;;;;;2.87;2.30;;;;;;;;;;4918764;29;20210;-61
2022/01/02 12:36:48;;;;;;;4.00;3.00;;;;;;;;;;4938569;28;20834;-61
2022/01/02 12:39:24;;;;;;;2.40;2.20;;;;;;;;;;4917879;29;20205;-61
2022/01/02 12:41:52;;;;;;;2.70;2.47;;;;;;;;;;4915516;29;20225;-62
2022/01/02 12:44:28;;;;;;;2.97;2.67;;;;;;;;;;4925392;29;20206;-62
2022/01/02 12:46:57;;;;;;;3.00;2.70;;;;;;;;;;4941320;28;20212;-62
2022/01/02 12:49:30;;;;;;;4.00;3.20;;;;;;;;;;4919776;28;20217;-61
2022/01/02 12:52:01;;;;;;;5.10;3.33;;;;;;;;;;4924548;28;20233;-60
2022/01/02 12:54:30;;;;;;;3.43;2.83;;;;;;;;;;4937784;28;20225;-61
2022/01/02 12:56:59;;;;;;;3.40;3.10;;;;;;;;;;4932782;28;20229;-62
2022/01/02 12:59:37;;;;;;;3.47;2.90;;;;;;;;;;4917615;28;20305;-63
2022/01/02 13:02:05;;;;;;;3.73;2.90;;;;;;;;;;4919046;28;20212;-63
2022/01/02 13:04:44;;;;;;;3.23;2.93;;;;;;;;;;4932850;28;20964;-62
2022/01/02 13:07:18;;;;;;;4.00;3.17;;;;;;;;;;4921085;29;20324;-62
2022/01/02 13:09:50;;;;;;;3.53;2.93;;;;;;;;;;4928773;28;20582;-63
2022/01/02 13:12:22;;;;;;;2.70;2.50;;;;;;;;;;4916150;28;20236;-62
2022/01/02 13:14:50;;;;;;;3.17;2.70;;;;;;;;;;4917577;29;20308;-62
2022/01/02 13:17:21;;;;;;;2.80;2.60;;;;;;;;;;4915073;28;20221;-62
2022/01/02 13:19:58;;;;;;;2.70;2.50;;;;;;;;;;4925781;28;20272;-62
2022/01/02 13:22:27;;;;;;;3.37;3.00;;;;;;;;;;4919399;28;20217;-62
2022/01/02 13:25:19;;;;;;;3.33;2.97;;;;;;;;;;4916651;28;20616;-62
2022/01/02 13:27:56;;;;;;;3.17;2.50;;;;;;;;;;4940439;28;20320;-63
2022/01/02 13:30:26;;;;;;;5.73;2.53;;;;;;;;;;4917977;28;20331;-62
2022/01/02 13:32:53;;;;;;;2.93;2.60;;;;;;;;;;4915748;28;20225;-62
2022/01/02 13:35:23;;;;;;;4.70;2.80;;;;;;;;;;4937335;28;20229;-62
2022/01/02 13:37:58;;;;;;;2.57;2.30;;;;;;;;;;4930778;28;20203;-63
2022/01/02 13:40:30;;;;;;;4.30;2.73;;;;;;;;;;4930798;28;20689;-62
2022/01/02 13:42:59;;;;;;;2.13;1.93;;;;;;;;;;4926202;28;20204;-62
2022/01/02 13:45:28;;;;;;;2.80;2.47;;;;;;;;;;4928327;28;20241;-63
2022/01/02 13:48:17;;;;;;;2.57;2.00;;;;;;;;;;4923073;28;20276;-62
2022/01/02 13:50:45;;;;;;;2.70;2.40;;;;;;;;;;4917304;28;20304;-62
2022/01/02 13:53:20;;;;;;;2.23;2.03;;;;;;;;;;4925939;28;20226;-63
2022/01/02 13:55:49;;;;;;;2.20;2.00;;;;;;;;;;4926245;28;20698;-62
2022/01/02 13:58:27;;;;;;;2.13;1.83;;;;;;;;;;4923668;28;20212;-62
2022/01/02 14:00:58;;;;;;;2.40;2.20;;;;;;;;;;4928373;28;20225;-62
2022/01/02 14:03:36;;;;;;;2.60;2.40;;;;;;;;;;4930017;28;20824;-62
2022/01/02 14:06:08;;;;;;;2.53;2.33;;;;;;;;;;4935055;28;20229;-62
2022/01/02 14:08:44;;;;;;;2.53;2.33;;;;;;;;;;4931654;28;20431;-62
2022/01/02 14:11:12;;;;;;;2.90;2.30;;;;;;;;;;4927078;28;20211;-62
2022/01/02 14:13:43;;;;;;;2.50;2.30;;;;;;;;;;4942382;28;20288;-62
2022/01/02 14:16:15;;;;;;;2.30;2.10;;;;;;;;;;4926070;29;20326;-62
2022/01/02 14:18:43;;;;;;;3.03;2.40;;;;;;;;;;4923666;28;20289;-63
2022/01/02 14:21:10;;;;;;;2.30;2.10;;;;;;;;;;4926958;28;20206;-61
2022/01/02 14:23:38;;;;;;;2.40;2.20;;;;;;;;;;4923011;28;20233;-62
2022/01/02 14:26:06;;;;;;;2.57;2.30;;;;;;;;;;4917144;28;20280;-60
2022/01/02 14:28:35;;;;;;;2.67;2.47;;;;;;;;;;4936033;28;20206;-61
2022/01/02 14:31:02;;;;;;;2.47;2.27;;;;;;;;;;4907628;28;20889;-60
2022/01/02 14:33:30;;;;;;;2.90;2.50;;;;;;;;;;4921267;28;20233;-62
2022/01/02 14:35:57;;;;;;;2.90;2.40;;;;;;;;;;4923861;28;23478;-59
2022/01/02 14:38:25;;;;;;;5.27;2.50;;;;;;;;;;4920031;28;20272;-62
2022/01/02 14:40:54;;;;;;;3.30;2.90;;;;;;;;;;4920810;28;20295;-62
2022/01/02 14:43:21;;;;;;;2.97;2.63;;;;;;;;;;4922552;28;20209;-61
2022/01/02 14:45:49;;;;;;;3.60;2.90;;;;;;;;;;4933084;28;20236;-61
2022/01/02 14:48:16;;;;;;;2.80;2.60;;;;;;;;;;4924081;28;22528;-61
2022/01/02 14:50:45;;;;;;;3.80;2.77;;;;;;;;;;4934345;28;20223;-62
2022/01/02 14:53:12;;;;;;;4.30;2.97;;;;;;;;;;4926038;28;20728;-60
2022/01/02 14:55:44;;;;;;;4.53;3.20;;;;;;;;;;4938690;28;20384;-62
2022/01/02 14:58:11;;;;;;;3.60;3.20;;;;;;;;;;4924640;28;20213;-63
2022/01/02 15:00:39;;;;;;;3.40;3.10;;;;;;;;;;4922803;28;20213;-60
2022/01/02 15:03:06;;;;;;;3.83;3.20;;;;;;;;;;4924164;28;20232;-62
2022/01/02 15:05:35;;;;;;;3.40;3.10;;;;;;;;;;4924015;28;20236;-62